createdAt,value
2018-04-08T00:00:05.448Z,7.10
2018-04-08T00:02:32.911Z,6.80
2018-04-08T00:05:01.143Z,7.53
2018-04-08T00:07:28.608Z,7.43
2018-04-08T00:09:56.073Z,6.87
2018-04-08T00:12:23.591Z,7.87
2018-04-08T00:14:51.055Z,7.40
2018-04-08T00:17:18.523Z,7.70
2018-04-08T00:19:46.775Z,7.13
2018-04-08T00:22:14.253Z,7.60
2018-04-08T00:24:41.721Z,7.47
2018-04-08T00:27:09.211Z,8.03
2018-04-08T00:29:36.741Z,7.67
2018-04-08T00:32:04.230Z,8.13
2018-04-08T00:34:31.688Z,7.87
2018-04-08T00:36:59.940Z,7.40
2018-04-08T00:39:27.394Z,7.23
2018-04-08T00:41:54.855Z,7.17
2018-04-08T00:44:22.318Z,7.07
2018-04-08T00:46:49.782Z,8.00
2018-04-08T00:49:17.250Z,7.83
2018-04-08T00:51:44.714Z,7.10
2018-04-08T00:54:23.876Z,7.60
2018-04-08T00:56:51.330Z,6.73
2018-04-08T00:59:18.776Z,7.57
2018-04-08T01:01:46.276Z,9.33
2018-04-08T01:04:13.756Z,8.37
2018-04-08T01:06:41.243Z,7.60
2018-04-08T01:09:08.715Z,8.67
2018-04-08T01:11:36.189Z,7.10
2018-04-08T01:14:03.680Z,7.03
2018-04-08T01:16:31.160Z,6.90
2018-04-08T01:18:59.434Z,7.70
2018-04-08T01:21:27.670Z,6.60
2018-04-08T01:23:55.172Z,7.67
2018-04-08T01:26:23.415Z,6.87
2018-04-08T01:28:50.879Z,7.13
2018-04-08T01:31:18.363Z,7.33
2018-04-08T01:33:46.608Z,6.90
2018-04-08T01:36:14.077Z,7.47
2018-04-08T01:38:42.339Z,7.80
2018-04-08T01:41:09.796Z,7.90
2018-04-08T01:43:37.281Z,7.40
2018-04-08T01:46:05.519Z,7.10
2018-04-08T01:48:32.980Z,7.87
2018-04-08T01:51:01.645Z,7.70
2018-04-08T01:53:29.116Z,8.73
2018-04-08T01:55:56.600Z,8.67
2018-04-08T01:58:24.065Z,7.00
2018-04-08T02:00:51.526Z,6.57
2018-04-08T02:03:19.032Z,9.30
2018-04-08T02:05:46.497Z,14.33
2018-04-08T02:08:13.990Z,10.67
2018-04-08T02:10:42.213Z,9.90
2018-04-08T02:13:10.356Z,9.50
2018-04-08T02:15:38.608Z,9.07
2018-04-08T02:18:06.086Z,8.53
2018-04-08T02:20:34.312Z,8.93
2018-04-08T02:23:01.789Z,8.13
2018-04-08T02:25:29.247Z,8.40
2018-04-08T02:27:56.722Z,9.17
2018-04-08T02:30:24.957Z,7.50
2018-04-08T02:32:52.455Z,8.50
2018-04-08T02:35:20.728Z,7.80
2018-04-08T02:37:48.184Z,8.73
2018-04-08T02:40:16.435Z,9.30
2018-04-08T02:42:43.907Z,7.00
2018-04-08T02:45:11.381Z,9.70
2018-04-08T02:47:39.606Z,6.90
2018-04-08T02:50:07.078Z,7.30
2018-04-08T02:52:34.588Z,7.67
2018-04-08T02:55:02.814Z,7.60
2018-04-08T02:57:30.298Z,7.10
2018-04-08T02:59:57.752Z,7.50
2018-04-08T03:02:25.210Z,7.67
2018-04-08T03:04:52.665Z,8.27
2018-04-08T03:07:20.129Z,7.80
2018-04-08T03:09:48.369Z,7.53
2018-04-08T03:12:15.843Z,7.80
2018-04-08T03:14:43.312Z,8.20
2018-04-08T03:17:10.772Z,8.63
2018-04-08T03:19:38.240Z,8.00
2018-04-08T03:22:06.479Z,8.50
2018-04-08T03:24:33.956Z,9.27
2018-04-08T03:27:01.430Z,8.03
2018-04-08T03:29:29.663Z,8.40
2018-04-08T03:31:57.127Z,10.33
2018-04-08T03:34:24.615Z,9.37
2018-04-08T03:36:52.863Z,9.50
2018-04-08T03:39:20.341Z,9.10
2018-04-08T03:41:48.567Z,7.23
2018-04-08T03:44:16.048Z,8.47
2018-04-08T03:46:43.535Z,7.13
2018-04-08T03:49:11.777Z,7.33
2018-04-08T03:51:39.261Z,8.10
2018-04-08T03:54:06.735Z,7.17
2018-04-08T03:56:34.964Z,8.70
2018-04-08T03:59:02.455Z,7.40
2018-04-08T04:01:29.920Z,6.97
2018-04-08T04:03:58.165Z,7.40
2018-04-08T04:06:25.623Z,7.93
2018-04-08T04:08:53.103Z,9.83
2018-04-08T04:11:21.356Z,8.73
2018-04-08T04:13:48.814Z,9.57
2018-04-08T04:16:16.302Z,10.00
2018-04-08T04:18:56.424Z,9.67
2018-04-08T04:21:35.768Z,9.43
2018-04-08T04:24:14.970Z,9.33
2018-04-08T04:26:42.431Z,9.50
2018-04-08T04:29:09.896Z,8.40
2018-04-08T04:31:37.357Z,8.60
2018-04-08T04:34:04.848Z,8.87
2018-04-08T04:36:33.078Z,11.13
2018-04-08T04:39:00.564Z,8.10
2018-04-08T04:41:28.038Z,8.80
2018-04-08T04:43:56.278Z,7.93
2018-04-08T04:46:23.758Z,8.87
2018-04-08T04:48:51.233Z,8.10
2018-04-08T04:51:19.544Z,8.30
2018-04-08T04:53:46.961Z,7.97
2018-04-08T04:56:15.187Z,9.90
2018-04-08T04:58:42.687Z,8.57
2018-04-08T05:01:10.143Z,8.73
2018-04-08T05:03:38.415Z,9.13
2018-04-08T05:06:05.868Z,8.80
2018-04-08T05:08:33.320Z,7.90
2018-04-08T05:11:00.801Z,8.10
2018-04-08T05:13:29.060Z,7.73
2018-04-08T05:15:56.537Z,7.40
2018-04-08T05:18:24.763Z,7.23
2018-04-08T05:20:52.243Z,8.07
2018-04-08T05:23:19.708Z,7.60
2018-04-08T05:25:47.942Z,8.20
2018-04-08T05:28:15.412Z,8.07
2018-04-08T05:30:42.876Z,7.30
2018-04-08T05:33:10.338Z,7.73
2018-04-08T05:35:37.822Z,7.73
2018-04-08T05:38:06.076Z,7.10
2018-04-08T05:40:33.537Z,7.93
2018-04-08T05:43:01.009Z,8.47
2018-04-08T05:45:29.260Z,7.13
2018-04-08T05:47:56.751Z,7.50
2018-04-08T05:50:25.013Z,6.97
2018-04-08T05:52:52.498Z,7.60
2018-04-08T05:55:19.967Z,8.97
2018-04-08T05:57:47.435Z,9.33
2018-04-08T06:00:14.924Z,10.30
2018-04-08T06:02:42.393Z,10.20
2018-04-08T06:05:09.854Z,9.10
2018-04-08T06:07:38.138Z,9.10
2018-04-08T06:10:06.437Z,8.90
2018-04-08T06:12:33.875Z,7.37
2018-04-08T06:15:02.120Z,7.30
2018-04-08T06:17:29.622Z,7.30
2018-04-08T06:19:57.125Z,8.63
2018-04-08T06:22:24.616Z,6.70
2018-04-08T06:24:52.102Z,6.70
2018-04-08T06:27:19.567Z,7.10
2018-04-08T06:29:47.057Z,7.13
2018-04-08T06:32:14.553Z,7.20
2018-04-08T06:34:42.777Z,6.93
2018-04-08T06:37:10.258Z,6.83
2018-04-08T06:39:37.745Z,6.53
2018-04-08T06:42:06.004Z,6.57
2018-04-08T06:44:33.480Z,7.07
2018-04-08T06:47:00.973Z,6.73
2018-04-08T06:49:28.516Z,7.50
2018-04-08T06:51:55.971Z,7.60
2018-04-08T06:54:23.464Z,7.37
2018-04-08T06:56:50.934Z,7.10
2018-04-08T06:59:18.427Z,7.97
2018-04-08T07:01:46.699Z,8.27
2018-04-08T07:04:14.944Z,8.17
2018-04-08T07:06:42.441Z,7.10
2018-04-08T07:09:10.673Z,6.60
2018-04-08T07:11:38.138Z,8.00
2018-04-08T07:14:05.754Z,8.83
2018-04-08T07:16:33.214Z,8.30
2018-04-08T07:19:00.712Z,8.07
2018-04-08T07:21:28.194Z,8.03
2018-04-08T07:23:56.447Z,9.17
2018-04-08T07:26:24.317Z,9.70
2018-04-08T07:28:51.779Z,8.50
2018-04-08T07:31:19.362Z,10.17
2018-04-08T07:33:47.585Z,10.67
2018-04-08T07:36:15.069Z,10.70
2018-04-08T07:38:42.575Z,9.33
2018-04-08T07:41:10.056Z,9.60
2018-04-08T07:43:37.539Z,8.73
2018-04-08T07:46:05.004Z,8.90
2018-04-08T07:48:32.471Z,7.93
2018-04-08T07:51:00.740Z,8.53
2018-04-08T07:53:28.217Z,8.60
2018-04-08T07:55:56.485Z,8.13
2018-04-08T07:58:23.959Z,7.83
2018-04-08T08:00:51.443Z,9.10
2018-04-08T08:03:18.945Z,10.50
2018-04-08T08:05:47.175Z,10.80
2018-04-08T08:08:14.701Z,9.80
2018-04-08T08:10:42.957Z,9.97
2018-04-08T08:13:11.201Z,10.00
2018-04-08T08:15:38.704Z,9.87
2018-04-08T08:18:06.179Z,9.60
2018-04-08T08:20:33.941Z,10.43
2018-04-08T08:23:01.488Z,9.93
2018-04-08T08:25:28.930Z,10.50
2018-04-08T08:27:56.433Z,10.00
2018-04-08T08:30:23.924Z,9.83
2018-04-08T08:32:51.423Z,10.23
2018-04-08T08:35:18.911Z,9.00
2018-04-08T08:37:46.394Z,10.77
2018-04-08T08:40:13.904Z,10.30
2018-04-08T08:42:41.369Z,10.20
2018-04-08T08:45:08.892Z,10.60
2018-04-08T08:47:37.178Z,9.90
2018-04-08T08:50:05.426Z,10.27
2018-04-08T08:52:32.942Z,10.50
2018-04-08T08:55:00.485Z,9.70
2018-04-08T08:57:27.936Z,10.30
2018-04-08T08:59:55.448Z,9.87
2018-04-08T09:02:24.097Z,11.47
2018-04-08T09:04:51.612Z,10.43
2018-04-08T09:07:19.087Z,10.27
2018-04-08T09:09:47.352Z,10.00
2018-04-08T09:12:14.828Z,10.30
2018-04-08T09:14:42.304Z,11.70
2018-04-08T09:17:10.340Z,10.37
2018-04-08T09:19:57.379Z,10.10
2018-04-08T09:22:29.369Z,10.60
2018-04-08T09:25:02.511Z,10.73
2018-04-08T09:27:30.772Z,10.40
2018-04-08T09:29:58.271Z,10.07
2018-04-08T09:32:25.764Z,10.30
2018-04-08T09:34:53.261Z,11.27
2018-04-08T09:37:21.494Z,11.60
2018-04-08T09:39:49.000Z,11.20
2018-04-08T09:42:16.478Z,11.23
2018-04-08T09:44:43.959Z,11.00
2018-04-08T09:47:11.467Z,11.00
2018-04-08T09:49:39.717Z,10.80
2018-04-08T09:52:07.219Z,11.77
2018-04-08T09:54:34.770Z,11.87
2018-04-08T09:57:02.364Z,11.47
2018-04-08T09:59:29.867Z,9.93
2018-04-08T10:02:11.843Z,11.07
2018-04-08T10:04:39.352Z,11.80
2018-04-08T10:07:06.827Z,11.90
2018-04-08T10:09:34.343Z,11.40
2018-04-08T10:12:02.600Z,11.67
2018-04-08T10:14:30.111Z,11.87
2018-04-08T10:16:57.607Z,12.43
2018-04-08T10:19:25.081Z,12.17
2018-04-08T10:21:52.626Z,11.70
2018-04-08T10:24:20.123Z,12.80
2018-04-08T10:26:48.367Z,12.83
2018-04-08T10:29:15.925Z,12.57
2018-04-08T10:31:43.415Z,11.97
2018-04-08T10:34:10.928Z,11.73
2018-04-08T10:36:38.415Z,14.00
2018-04-08T10:39:06.689Z,11.77
2018-04-08T10:41:34.970Z,12.10
2018-04-08T10:44:02.502Z,12.60
2018-04-08T10:46:30.015Z,12.43
2018-04-08T10:48:57.508Z,13.00
2018-04-08T10:51:25.004Z,12.93
2018-04-08T10:53:52.524Z,13.20
2018-04-08T10:56:20.008Z,12.60
2018-04-08T10:58:47.598Z,12.43
2018-04-08T11:01:15.094Z,12.90
2018-04-08T11:03:42.579Z,11.80
2018-04-08T11:06:10.093Z,10.10
2018-04-08T11:08:37.580Z,9.30
2018-04-08T11:11:05.074Z,8.17
2018-04-08T11:13:33.354Z,9.93
2018-04-08T11:16:01.600Z,8.27
2018-04-08T11:18:29.129Z,8.40
2018-04-08T11:20:56.599Z,8.40
2018-04-08T11:23:24.083Z,8.17
2018-04-08T11:25:51.566Z,8.47
2018-04-08T11:28:19.805Z,7.50
2018-04-08T11:30:47.314Z,6.20
2018-04-08T11:33:14.806Z,5.33
2018-04-08T11:35:42.299Z,6.57
2018-04-08T11:38:10.525Z,6.50
2018-04-08T11:40:38.002Z,8.80
2018-04-08T11:43:05.512Z,11.27
2018-04-08T11:45:33.011Z,11.03
2018-04-08T11:48:00.515Z,9.90
2018-04-08T11:50:28.761Z,10.90
2018-04-08T11:52:56.237Z,12.40
2018-04-08T11:55:24.502Z,10.97
2018-04-08T11:57:51.956Z,12.13
2018-04-08T12:00:19.450Z,12.60
2018-04-08T12:02:46.946Z,11.67
2018-04-08T12:05:14.492Z,12.70
2018-04-08T12:07:41.992Z,13.70
2018-04-08T12:10:09.471Z,12.90
2018-04-08T12:12:37.771Z,12.57
2018-04-08T12:15:06.090Z,11.87
2018-04-08T12:17:33.560Z,12.23
2018-04-08T12:20:01.055Z,11.33
2018-04-08T12:22:28.526Z,12.47
2018-04-08T12:24:56.026Z,11.20
2018-04-08T12:27:23.500Z,12.77
2018-04-08T12:29:51.758Z,9.70
2018-04-08T12:32:19.258Z,8.00
2018-04-08T12:34:46.719Z,10.20
2018-04-08T12:37:14.219Z,11.00
2018-04-08T12:39:41.678Z,9.27
2018-04-08T12:42:09.203Z,9.97
2018-04-08T12:44:36.703Z,10.10
2018-04-08T12:47:04.196Z,10.17
2018-04-08T12:49:32.464Z,10.27
2018-04-08T12:52:00.728Z,9.93
2018-04-08T12:54:28.168Z,9.73
2018-04-08T12:56:55.670Z,10.77
2018-04-08T12:59:23.160Z,10.10
2018-04-08T13:01:50.798Z,12.33
2018-04-08T13:04:18.282Z,10.83
2018-04-08T13:06:45.775Z,11.37
2018-04-08T13:09:14.098Z,10.60
2018-04-08T13:11:41.591Z,10.30
2018-04-08T13:14:09.137Z,10.63
2018-04-08T13:16:36.613Z,10.13
2018-04-08T13:19:04.113Z,10.10
2018-04-08T13:21:31.628Z,9.23
2018-04-08T13:23:59.921Z,9.50
2018-04-08T13:26:28.193Z,10.33
2018-04-08T13:28:55.707Z,8.67
2018-04-08T13:31:23.215Z,9.37
2018-04-08T13:33:51.656Z,10.10
2018-04-08T13:36:19.146Z,10.13
2018-04-08T13:38:46.613Z,9.30
2018-04-08T13:41:14.123Z,10.80
2018-04-08T13:43:41.591Z,9.80
2018-04-08T13:46:09.088Z,9.47
2018-04-08T13:48:37.390Z,10.23
2018-04-08T13:51:04.861Z,8.90
2018-04-08T13:53:32.355Z,8.63
2018-04-08T13:55:59.838Z,8.77
2018-04-08T13:58:28.116Z,8.80
2018-04-08T14:00:56.436Z,8.10
2018-04-08T14:03:24.693Z,6.83
2018-04-08T14:05:52.948Z,8.90
2018-04-08T14:08:20.477Z,7.37
2018-04-08T14:10:47.988Z,7.27
2018-04-08T14:13:15.480Z,8.40
2018-04-08T14:15:42.987Z,8.67
2018-04-08T14:18:10.470Z,9.27
2018-04-08T14:20:37.970Z,7.37
2018-04-08T14:23:05.447Z,9.77
2018-04-08T14:25:33.712Z,11.03
2018-04-08T14:28:01.228Z,9.10
2018-04-08T14:30:28.724Z,10.23
2018-04-08T14:32:56.978Z,9.67
2018-04-08T14:35:24.496Z,8.00
2018-04-08T14:37:52.000Z,8.20
2018-04-08T14:40:19.501Z,8.00
2018-04-08T14:42:47.014Z,9.50
2018-04-08T14:45:14.542Z,9.20
2018-04-08T14:47:42.064Z,9.83
2018-04-08T14:50:10.316Z,10.37
2018-04-08T14:52:37.863Z,9.77
2018-04-08T14:55:05.334Z,9.30
2018-04-08T14:57:32.803Z,9.20
2018-04-08T15:00:01.074Z,9.70
2018-04-08T15:02:29.452Z,9.73
2018-04-08T15:04:57.722Z,9.03
2018-04-08T15:07:26.159Z,9.80
2018-04-08T15:09:53.627Z,10.37
2018-04-08T15:12:21.130Z,9.10
2018-04-08T15:14:49.437Z,8.50
2018-04-08T15:17:16.967Z,9.27
2018-04-08T15:19:45.242Z,9.90
2018-04-08T15:22:13.487Z,10.23
2018-04-08T15:24:40.996Z,10.03
2018-04-08T15:27:08.504Z,10.57
2018-04-08T15:29:36.003Z,10.77
2018-04-08T15:32:04.318Z,8.57
2018-04-08T15:34:31.831Z,9.07
2018-04-08T15:37:00.078Z,8.37
2018-04-08T15:39:27.566Z,15.43
2018-04-08T15:41:55.857Z,19.03
2018-04-08T15:44:23.347Z,13.47
2018-04-08T15:46:50.863Z,14.10
2018-04-08T15:49:18.558Z,11.60
2018-04-08T15:51:47.018Z,9.43
2018-04-08T15:54:14.608Z,9.17
2018-04-08T15:56:42.085Z,7.97
2018-04-08T15:59:09.588Z,7.30
2018-04-08T16:01:37.145Z,8.13
2018-04-08T16:04:04.629Z,6.90
2018-04-08T16:06:32.145Z,8.47
2018-04-08T16:09:00.409Z,11.07
2018-04-08T16:11:27.909Z,19.60
2018-04-08T16:13:55.402Z,23.10
2018-04-08T16:16:22.906Z,8.30
2018-04-08T16:18:50.438Z,11.50
2018-04-08T16:21:17.919Z,10.13
2018-04-08T16:23:45.398Z,10.80
2018-04-08T16:26:12.902Z,8.20
2018-04-08T16:28:40.399Z,6.33
2018-04-08T16:31:08.113Z,6.27
2018-04-08T16:33:35.598Z,7.23
2018-04-08T16:36:03.345Z,6.90
2018-04-08T16:38:30.837Z,9.70
2018-04-08T16:40:58.355Z,7.57
2018-04-08T16:43:25.900Z,7.53
2018-04-08T16:45:53.386Z,7.17
2018-04-08T16:48:20.909Z,8.47
2018-04-08T16:50:48.429Z,6.50
2018-04-08T16:53:15.951Z,6.00
2018-04-08T16:55:43.463Z,6.67
2018-04-08T16:58:10.960Z,8.90
2018-04-08T17:00:38.452Z,19.90
2018-04-08T17:03:06.728Z,41.63
2018-04-08T17:05:34.988Z,11.00
2018-04-08T17:08:02.548Z,6.60
2018-04-08T17:10:30.029Z,7.83
2018-04-08T17:12:57.597Z,8.10
2018-04-08T17:15:25.106Z,6.77
2018-04-08T17:17:52.597Z,6.10
2018-04-08T17:20:20.871Z,7.20
2018-04-08T17:22:49.126Z,6.47
2018-04-08T17:25:16.615Z,5.90
2018-04-08T17:27:44.896Z,7.00
2018-04-08T17:30:12.412Z,8.30
2018-04-08T17:32:39.915Z,7.37
2018-04-08T17:35:07.396Z,6.87
2018-04-08T17:37:34.880Z,6.73
2018-04-08T17:40:02.616Z,6.53
2018-04-08T17:42:30.106Z,6.60
2018-04-08T17:44:57.607Z,9.23
2018-04-08T17:47:25.097Z,6.63
2018-04-08T17:49:52.580Z,7.57
2018-04-08T17:52:20.051Z,7.00
2018-04-08T17:54:47.539Z,6.83
2018-04-08T17:57:15.036Z,7.30
2018-04-08T17:59:42.502Z,7.43
2018-04-08T18:02:10.017Z,7.37
2018-04-08T18:04:37.521Z,6.77
2018-04-08T18:07:05.031Z,7.10
2018-04-08T18:09:32.537Z,7.00
2018-04-08T18:12:00.009Z,7.00
2018-04-08T18:14:27.495Z,7.13
2018-04-08T18:16:55.744Z,7.90
2018-04-08T18:19:23.215Z,8.10
2018-04-08T18:21:50.699Z,7.50
2018-04-08T18:24:18.236Z,9.40
2018-04-08T18:26:46.530Z,9.07
2018-04-08T18:29:14.017Z,7.87
2018-04-08T18:31:41.731Z,8.30
2018-04-08T18:34:09.993Z,7.50
2018-04-08T18:36:37.514Z,7.63
2018-04-08T18:39:05.910Z,7.33
2018-04-08T18:41:33.362Z,9.27
2018-04-08T18:44:00.850Z,9.57
2018-04-08T18:46:28.382Z,10.20
2018-04-08T18:48:55.877Z,8.40
2018-04-08T18:51:24.132Z,8.00
2018-04-08T18:53:51.625Z,8.10
2018-04-08T18:56:19.143Z,9.60
2018-04-08T18:58:46.646Z,6.43
2018-04-08T19:01:14.126Z,7.77
2018-04-08T19:03:41.607Z,8.10
2018-04-08T19:06:09.120Z,6.37
2018-04-08T19:08:36.590Z,7.30
2018-04-08T19:11:04.081Z,7.17
2018-04-08T19:13:31.573Z,6.90
2018-04-08T19:15:59.822Z,7.67
2018-04-08T19:18:27.326Z,7.10
2018-04-08T19:20:54.832Z,7.30
2018-04-08T19:23:22.351Z,7.97
2018-04-08T19:25:49.871Z,7.80
2018-04-08T19:28:17.370Z,8.53
2018-04-08T19:30:44.863Z,8.20
2018-04-08T19:33:12.364Z,9.37
2018-04-08T19:35:40.634Z,10.80
2018-04-08T19:38:08.890Z,9.53
2018-04-08T19:40:36.370Z,7.77
2018-04-08T19:43:04.629Z,7.30
2018-04-08T19:45:32.135Z,7.60
2018-04-08T19:47:59.683Z,7.60
2018-04-08T19:50:27.143Z,6.17
2018-04-08T19:52:54.617Z,6.60
2018-04-08T19:55:22.134Z,7.30
2018-04-08T19:57:50.391Z,6.17
2018-04-08T20:00:17.894Z,7.20
2018-04-08T20:02:46.612Z,7.13
2018-04-08T20:05:14.088Z,6.03
2018-04-08T20:07:41.591Z,8.73
2018-04-08T20:10:09.069Z,8.60
2018-04-08T20:12:36.614Z,9.90
2018-04-08T20:15:04.109Z,11.00
2018-04-08T20:17:31.628Z,9.23
2018-04-08T20:19:59.138Z,9.60
2018-04-08T20:22:26.628Z,10.00
2018-04-08T20:24:54.125Z,11.00
2018-04-08T20:27:21.615Z,12.93
2018-04-08T20:29:49.079Z,11.97
2018-04-08T20:32:17.338Z,13.17
2018-04-08T20:34:44.841Z,13.93
2018-04-08T20:37:12.331Z,13.03
2018-04-08T20:39:39.821Z,12.43
2018-04-08T20:42:07.308Z,11.10
2018-04-08T20:44:34.788Z,8.47
2018-04-08T20:47:02.307Z,9.63
2018-04-08T20:49:30.582Z,7.70
2018-04-08T20:51:58.837Z,7.90
2018-04-08T20:54:26.327Z,7.50
2018-04-08T20:56:53.831Z,9.30
2018-04-08T20:59:21.317Z,9.77
2018-04-08T21:01:48.804Z,8.83
2018-04-08T21:04:16.275Z,8.30
2018-04-08T21:06:43.759Z,8.77
2018-04-08T21:09:11.242Z,8.57
2018-04-08T21:11:38.727Z,9.50
2018-04-08T21:14:06.243Z,8.90
2018-04-08T21:16:34.497Z,8.63
2018-04-08T21:19:02.782Z,7.50
2018-04-08T21:21:30.284Z,7.57
2018-04-08T21:23:58.516Z,7.50
2018-04-08T21:26:26.340Z,7.67
2018-04-08T21:28:54.582Z,7.30
2018-04-08T21:31:22.076Z,7.00
2018-04-08T21:33:50.100Z,6.70
2018-04-08T21:36:17.603Z,7.23
2018-04-08T21:38:45.090Z,6.63
2018-04-08T21:41:12.604Z,6.80
2018-04-08T21:43:40.084Z,6.40
2018-04-08T21:46:07.590Z,7.27
2018-04-08T21:48:35.071Z,6.10
2018-04-08T21:51:02.544Z,6.20
2018-04-08T21:53:30.829Z,6.10
2018-04-08T21:55:58.331Z,6.40
2018-04-08T21:58:25.824Z,6.03
2018-04-08T22:00:53.302Z,6.20
2018-04-08T22:03:20.767Z,6.30
2018-04-08T22:05:48.279Z,6.73
2018-04-08T22:08:16.769Z,6.97
2018-04-08T22:10:45.020Z,6.37
2018-04-08T22:13:12.487Z,7.00
2018-04-08T22:15:39.958Z,6.60
2018-04-08T22:18:07.459Z,6.50
2018-04-08T22:20:34.939Z,5.77
2018-04-08T22:23:02.452Z,5.70
2018-04-08T22:25:29.933Z,6.33
2018-04-08T22:27:57.404Z,5.90
2018-04-08T22:30:24.903Z,6.70
2018-04-08T22:32:52.369Z,6.40
2018-04-08T22:35:20.616Z,7.23
2018-04-08T22:37:48.094Z,6.70
2018-04-08T22:40:15.571Z,6.73
2018-04-08T22:42:43.839Z,8.00
2018-04-08T22:45:12.069Z,8.40
2018-04-08T22:47:39.543Z,8.37
2018-04-08T22:50:07.001Z,7.30
2018-04-08T22:52:34.485Z,7.73
2018-04-08T22:55:01.962Z,8.63
2018-04-08T22:57:30.200Z,8.50
2018-04-08T22:59:57.695Z,8.40
2018-04-08T23:02:25.158Z,9.13
2018-04-08T23:04:52.633Z,8.87
2018-04-08T23:07:20.146Z,7.33
2018-04-08T23:09:48.385Z,8.10
2018-04-08T23:12:15.882Z,7.17
2018-04-08T23:14:44.140Z,6.40
2018-04-08T23:17:11.642Z,7.17
2018-04-08T23:19:40.505Z,7.33
2018-04-08T23:22:07.987Z,5.20
2018-04-08T23:24:35.477Z,7.27
2018-04-08T23:27:02.954Z,6.40
2018-04-08T23:29:30.439Z,6.67
2018-04-08T23:31:58.664Z,6.87
2018-04-08T23:34:26.141Z,6.73
2018-04-08T23:36:53.635Z,7.43
2018-04-08T23:39:21.851Z,6.27
2018-04-08T23:41:50.046Z,6.50
2018-04-08T23:44:17.533Z,6.47
2018-04-08T23:46:45.759Z,7.00
2018-04-08T23:49:13.258Z,6.60
2018-04-08T23:51:40.743Z,6.20
2018-04-08T23:54:08.231Z,6.50
2018-04-08T23:56:35.723Z,6.63
2018-04-08T23:59:03.200Z,7.03
